Terminal Aerodrome Forecast
Issued by NWS Portland, OR

Home | Current Version | Previous Version | Text Only | Print | Product List | Glossary On
Versions: 1 2 3 4 5 6 7 8 9 10 11 12 13 14 15 16 17 18 19 20 21 22 23 24 25 26 27 28 29 30 31 32 33 34 35 36 37 38
000
FTUS46 KPQR 241416 AAA
TAFTTD
TAF AMD
KTTD 241416Z 2414/2512 00000KT P6SM OVC010
     FM241600 06004KT P6SM SKC
     FM242100 30005KT P6SM SKC
     FM250600 00000KT P6SM FEW250=

USA.gov is the U.S. government's official web portal to all federal, state and local government web resources and services.